sensor_id;sensor_type;location;lat;lon;timestamp;P1;durP1;ratioP1;P2;durP2;ratioP2
67092;SDS011;54011;50.772;7.730;2023-02-28T00:00:27;6.50;;;2.65;;
67092;SDS011;54011;50.772;7.730;2023-02-28T00:02:52;5.95;;;2.50;;
67092;SDS011;54011;50.772;7.730;2023-02-28T00:05:19;8.85;;;2.88;;
67092;SDS011;54011;50.772;7.730;2023-02-28T00:07:46;9.48;;;3.17;;
67092;SDS011;54011;50.772;7.730;2023-02-28T00:10:13;6.22;;;2.45;;
67092;SDS011;54011;50.772;7.730;2023-02-28T00:12:40;5.90;;;2.50;;
67092;SDS011;54011;50.772;7.730;2023-02-28T00:15:08;8.20;;;3.00;;
67092;SDS011;54011;50.772;7.730;2023-02-28T00:17:35;5.00;;;2.53;;
67092;SDS011;54011;50.772;7.730;2023-02-28T00:20:05;7.78;;;2.40;;
67092;SDS011;54011;50.772;7.730;2023-02-28T00:22:35;6.32;;;2.30;;
67092;SDS011;54011;50.772;7.730;2023-02-28T00:25:03;7.63;;;2.85;;
67092;SDS011;54011;50.772;7.730;2023-02-28T00:27:29;8.07;;;2.17;;
67092;SDS011;54011;50.772;7.730;2023-02-28T00:29:56;8.70;;;2.75;;
67092;SDS011;54011;50.772;7.730;2023-02-28T00:32:23;4.95;;;2.28;;
67092;SDS011;54011;50.772;7.730;2023-02-28T00:34:49;8.38;;;2.13;;
67092;SDS011;54011;50.772;7.730;2023-02-28T00:37:14;5.05;;;2.25;;
67092;SDS011;54011;50.772;7.730;2023-02-28T00:39:40;7.63;;;2.70;;
67092;SDS011;54011;50.772;7.730;2023-02-28T00:42:06;5.70;;;2.30;;
67092;SDS011;54011;50.772;7.730;2023-02-28T00:44:33;5.22;;;2.00;;
67092;SDS011;54011;50.772;7.730;2023-02-28T00:46:59;7.18;;;2.22;;
67092;SDS011;54011;50.772;7.730;2023-02-28T00:49:26;8.77;;;2.20;;
67092;SDS011;54011;50.772;7.730;2023-02-28T00:51:52;5.40;;;2.15;;
67092;SDS011;54011;50.772;7.730;2023-02-28T00:54:18;5.75;;;2.25;;
67092;SDS011;54011;50.772;7.730;2023-02-28T00:56:46;5.50;;;2.00;;
67092;SDS011;54011;50.772;7.730;2023-02-28T00:59:13;7.22;;;2.03;;
67092;SDS011;54011;50.772;7.730;2023-02-28T01:01:39;5.10;;;2.13;;
67092;SDS011;54011;50.772;7.730;2023-02-28T01:04:07;4.57;;;2.33;;
67092;SDS011;54011;50.772;7.730;2023-02-28T01:06:34;6.72;;;2.40;;
67092;SDS011;54011;50.772;7.730;2023-02-28T01:09:01;5.43;;;2.25;;
67092;SDS011;54011;50.772;7.730;2023-02-28T01:11:28;5.90;;;2.50;;
67092;SDS011;54011;50.772;7.730;2023-02-28T01:13:53;5.65;;;2.08;;
67092;SDS011;54011;50.772;7.730;2023-02-28T01:16:20;6.55;;;2.30;;
67092;SDS011;54011;50.772;7.730;2023-02-28T01:18:47;6.57;;;2.58;;
67092;SDS011;54011;50.772;7.730;2023-02-28T01:21:14;5.25;;;2.28;;
67092;SDS011;54011;50.772;7.730;2023-02-28T01:23:44;5.32;;;2.38;;
67092;SDS011;54011;50.772;7.730;2023-02-28T01:26:11;6.03;;;2.20;;
67092;SDS011;54011;50.772;7.730;2023-02-28T01:28:38;5.63;;;1.95;;
67092;SDS011;54011;50.772;7.730;2023-02-28T01:31:04;4.07;;;2.10;;
67092;SDS011;54011;50.772;7.730;2023-02-28T01:33:31;7.03;;;2.47;;
67092;SDS011;54011;50.772;7.730;2023-02-28T01:35:59;4.72;;;2.05;;
67092;SDS011;54011;50.772;7.730;2023-02-28T01:38:28;5.77;;;2.23;;
67092;SDS011;54011;50.772;7.730;2023-02-28T01:40:55;4.68;;;1.88;;
67092;SDS011;54011;50.772;7.730;2023-02-28T01:43:29;3.63;;;1.80;;
67092;SDS011;54011;50.772;7.730;2023-02-28T01:46:14;6.53;;;2.72;;
67092;SDS011;54011;50.772;7.730;2023-02-28T01:48:42;6.32;;;2.00;;
67092;SDS011;54011;50.772;7.730;2023-02-28T01:51:22;6.20;;;2.20;;
67092;SDS011;54011;50.772;7.730;2023-02-28T01:54:04;7.75;;;2.28;;
67092;SDS011;54011;50.772;7.730;2023-02-28T01:56:40;7.95;;;2.28;;
67092;SDS011;54011;50.772;7.730;2023-02-28T01:59:12;4.47;;;1.98;;
67092;SDS011;54011;50.772;7.730;2023-02-28T02:01:43;6.00;;;2.33;;
67092;SDS011;54011;50.772;7.730;2023-02-28T02:04:08;5.07;;;2.05;;
67092;SDS011;54011;50.772;7.730;2023-02-28T02:06:36;5.95;;;2.10;;
67092;SDS011;54011;50.772;7.730;2023-02-28T02:09:07;4.18;;;1.70;;
67092;SDS011;54011;50.772;7.730;2023-02-28T02:11:34;5.40;;;2.00;;
67092;SDS011;54011;50.772;7.730;2023-02-28T02:14:24;4.43;;;2.10;;
67092;SDS011;54011;50.772;7.730;2023-02-28T02:23:18;6.28;;;2.33;;
67092;SDS011;54011;50.772;7.730;2023-02-28T02:26:04;3.72;;;1.77;;
67092;SDS011;54011;50.772;7.730;2023-02-28T02:34:29;10.27;;;2.22;;
67092;SDS011;54011;50.772;7.730;2023-02-28T02:37:07;4.53;;;2.13;;
67092;SDS011;54011;50.772;7.730;2023-02-28T02:39:50;4.43;;;1.83;;
67092;SDS011;54011;50.772;7.730;2023-02-28T02:42:46;6.10;;;2.05;;
67092;SDS011;54011;50.772;7.730;2023-02-28T02:45:36;4.47;;;2.10;;
67092;SDS011;54011;50.772;7.730;2023-02-28T02:48:08;5.07;;;2.15;;
67092;SDS011;54011;50.772;7.730;2023-02-28T02:50:51;8.32;;;1.92;;
67092;SDS011;54011;50.772;7.730;2023-02-28T02:53:21;6.35;;;1.92;;
67092;SDS011;54011;50.772;7.730;2023-02-28T02:55:52;4.63;;;2.20;;
67092;SDS011;54011;50.772;7.730;2023-02-28T02:58:22;4.60;;;2.08;;
67092;SDS011;54011;50.772;7.730;2023-02-28T03:00:53;6.50;;;2.50;;
67092;SDS011;54011;50.772;7.730;2023-02-28T03:03:22;5.32;;;2.15;;
67092;SDS011;54011;50.772;7.730;2023-02-28T03:05:55;5.35;;;2.00;;
67092;SDS011;54011;50.772;7.730;2023-02-28T03:08:22;5.05;;;2.17;;
67092;SDS011;54011;50.772;7.730;2023-02-28T03:10:48;4.28;;;1.95;;
67092;SDS011;54011;50.772;7.730;2023-02-28T03:13:32;7.43;;;2.17;;
67092;SDS011;54011;50.772;7.730;2023-02-28T03:16:28;6.18;;;2.67;;
67092;SDS011;54011;50.772;7.730;2023-02-28T03:27:38;5.82;;;2.08;;
67092;SDS011;54011;50.772;7.730;2023-02-28T03:30:12;8.18;;;2.78;;
67092;SDS011;54011;50.772;7.730;2023-02-28T03:32:57;5.68;;;2.47;;
67092;SDS011;54011;50.772;7.730;2023-02-28T03:35:37;6.55;;;2.08;;
67092;SDS011;54011;50.772;7.730;2023-02-28T03:40:45;4.50;;;2.28;;
67092;SDS011;54011;50.772;7.730;2023-02-28T03:43:15;9.90;;;2.80;;
67092;SDS011;54011;50.772;7.730;2023-02-28T03:45:47;6.18;;;2.85;;
67092;SDS011;54011;50.772;7.730;2023-02-28T03:48:22;4.72;;;2.20;;
67092;SDS011;54011;50.772;7.730;2023-02-28T03:50:53;5.65;;;2.33;;
67092;SDS011;54011;50.772;7.730;2023-02-28T03:53:27;5.05;;;2.85;;
67092;SDS011;54011;50.772;7.730;2023-02-28T03:55:59;7.20;;;2.70;;
67092;SDS011;54011;50.772;7.730;2023-02-28T04:01:15;9.07;;;2.85;;
67092;SDS011;54011;50.772;7.730;2023-02-28T04:03:46;5.15;;;2.35;;
67092;SDS011;54011;50.772;7.730;2023-02-28T04:06:17;5.35;;;2.50;;
67092;SDS011;54011;50.772;7.730;2023-02-28T04:08:45;5.35;;;2.60;;
67092;SDS011;54011;50.772;7.730;2023-02-28T04:11:15;6.57;;;3.08;;
67092;SDS011;54011;50.772;7.730;2023-02-28T04:13:46;5.93;;;2.45;;
67092;SDS011;54011;50.772;7.730;2023-02-28T04:16:12;6.20;;;2.42;;
67092;SDS011;54011;50.772;7.730;2023-02-28T04:18:38;7.22;;;3.08;;
67092;SDS011;54011;50.772;7.730;2023-02-28T04:21:05;8.88;;;3.00;;
67092;SDS011;54011;50.772;7.730;2023-02-28T04:23:31;8.60;;;3.20;;
67092;SDS011;54011;50.772;7.730;2023-02-28T04:25:57;6.00;;;2.75;;
67092;SDS011;54011;50.772;7.730;2023-02-28T04:28:23;5.20;;;2.70;;
67092;SDS011;54011;50.772;7.730;2023-02-28T04:30:56;6.55;;;2.47;;
67092;SDS011;54011;50.772;7.730;2023-02-28T04:33:26;5.03;;;2.40;;
67092;SDS011;54011;50.772;7.730;2023-02-28T04:36:03;8.70;;;3.00;;
67092;SDS011;54011;50.772;7.730;2023-02-28T04:38:35;5.40;;;2.35;;
67092;SDS011;54011;50.772;7.730;2023-02-28T04:41:02;4.90;;;2.75;;
67092;SDS011;54011;50.772;7.730;2023-02-28T04:43:28;7.80;;;2.83;;
67092;SDS011;54011;50.772;7.730;2023-02-28T04:45:55;5.88;;;2.58;;
67092;SDS011;54011;50.772;7.730;2023-02-28T04:48:23;5.82;;;2.70;;
67092;SDS011;54011;50.772;7.730;2023-02-28T04:50:52;4.85;;;2.42;;
67092;SDS011;54011;50.772;7.730;2023-02-28T04:53:20;6.30;;;2.13;;
67092;SDS011;54011;50.772;7.730;2023-02-28T04:55:46;6.80;;;2.55;;
67092;SDS011;54011;50.772;7.730;2023-02-28T04:58:11;7.22;;;2.70;;
67092;SDS011;54011;50.772;7.730;2023-02-28T05:00:41;5.65;;;2.40;;
67092;SDS011;54011;50.772;7.730;2023-02-28T05:03:06;5.43;;;2.28;;
67092;SDS011;54011;50.772;7.730;2023-02-28T05:05:32;6.63;;;2.75;;
67092;SDS011;54011;50.772;7.730;2023-02-28T05:07:57;5.80;;;2.63;;
67092;SDS011;54011;50.772;7.730;2023-02-28T05:10:23;4.60;;;2.40;;
67092;SDS011;54011;50.772;7.730;2023-02-28T05:12:48;4.90;;;2.50;;
67092;SDS011;54011;50.772;7.730;2023-02-28T05:15:16;7.18;;;2.83;;
67092;SDS011;54011;50.772;7.730;2023-02-28T05:17:42;7.57;;;2.83;;
67092;SDS011;54011;50.772;7.730;2023-02-28T05:20:08;8.82;;;3.00;;
67092;SDS011;54011;50.772;7.730;2023-02-28T05:22:37;7.72;;;2.85;;
67092;SDS011;54011;50.772;7.730;2023-02-28T05:25:03;6.05;;;3.20;;
67092;SDS011;54011;50.772;7.730;2023-02-28T05:27:30;7.05;;;2.97;;
67092;SDS011;54011;50.772;7.730;2023-02-28T05:29:56;11.07;;;3.03;;
67092;SDS011;54011;50.772;7.730;2023-02-28T05:32:24;5.43;;;2.83;;
67092;SDS011;54011;50.772;7.730;2023-02-28T05:34:49;5.57;;;2.35;;
67092;SDS011;54011;50.772;7.730;2023-02-28T05:37:16;7.47;;;2.40;;
67092;SDS011;54011;50.772;7.730;2023-02-28T05:39:42;6.18;;;2.85;;
67092;SDS011;54011;50.772;7.730;2023-02-28T05:42:08;5.32;;;2.60;;
67092;SDS011;54011;50.772;7.730;2023-02-28T05:44:35;7.53;;;3.28;;
67092;SDS011;54011;50.772;7.730;2023-02-28T05:47:01;5.50;;;3.08;;
67092;SDS011;54011;50.772;7.730;2023-02-28T05:49:27;6.75;;;2.80;;
67092;SDS011;54011;50.772;7.730;2023-02-28T05:51:53;7.55;;;2.90;;
67092;SDS011;54011;50.772;7.730;2023-02-28T05:54:19;8.40;;;2.95;;
67092;SDS011;54011;50.772;7.730;2023-02-28T05:56:44;5.95;;;2.85;;
67092;SDS011;54011;50.772;7.730;2023-02-28T05:59:11;6.20;;;2.80;;
67092;SDS011;54011;50.772;7.730;2023-02-28T06:01:38;6.55;;;2.95;;
67092;SDS011;54011;50.772;7.730;2023-02-28T06:04:15;4.78;;;2.58;;
67092;SDS011;54011;50.772;7.730;2023-02-28T06:06:47;6.00;;;2.85;;
67092;SDS011;54011;50.772;7.730;2023-02-28T06:09:15;5.80;;;2.85;;
67092;SDS011;54011;50.772;7.730;2023-02-28T06:11:41;6.70;;;3.25;;
67092;SDS011;54011;50.772;7.730;2023-02-28T06:14:07;5.88;;;2.85;;
67092;SDS011;54011;50.772;7.730;2023-02-28T06:16:39;5.68;;;2.72;;
67092;SDS011;54011;50.772;7.730;2023-02-28T06:19:17;8.85;;;3.40;;
67092;SDS011;54011;50.772;7.730;2023-02-28T06:21:43;5.40;;;2.92;;
67092;SDS011;54011;50.772;7.730;2023-02-28T06:24:09;6.75;;;3.25;;
67092;SDS011;54011;50.772;7.730;2023-02-28T06:26:35;6.40;;;3.20;;
67092;SDS011;54011;50.772;7.730;2023-02-28T06:29:01;5.95;;;3.03;;
67092;SDS011;54011;50.772;7.730;2023-02-28T06:31:26;9.70;;;3.10;;
67092;SDS011;54011;50.772;7.730;2023-02-28T06:33:54;5.35;;;2.88;;
67092;SDS011;54011;50.772;7.730;2023-02-28T06:36:20;7.40;;;3.22;;
67092;SDS011;54011;50.772;7.730;2023-02-28T06:38:46;6.20;;;3.17;;
67092;SDS011;54011;50.772;7.730;2023-02-28T06:41:16;7.27;;;3.30;;
67092;SDS011;54011;50.772;7.730;2023-02-28T06:43:43;6.95;;;3.05;;
67092;SDS011;54011;50.772;7.730;2023-02-28T06:46:11;10.45;;;3.60;;
67092;SDS011;54011;50.772;7.730;2023-02-28T06:48:38;10.63;;;4.95;;
67092;SDS011;54011;50.772;7.730;2023-02-28T06:51:10;11.77;;;4.25;;
67092;SDS011;54011;50.772;7.730;2023-02-28T06:53:40;10.48;;;4.43;;
67092;SDS011;54011;50.772;7.730;2023-02-28T06:56:07;13.43;;;4.60;;
67092;SDS011;54011;50.772;7.730;2023-02-28T06:58:35;8.30;;;3.70;;
67092;SDS011;54011;50.772;7.730;2023-02-28T07:01:03;8.18;;;3.47;;
67092;SDS011;54011;50.772;7.730;2023-02-28T07:03:29;7.13;;;3.15;;
67092;SDS011;54011;50.772;7.730;2023-02-28T07:05:54;7.38;;;3.78;;
67092;SDS011;54011;50.772;7.730;2023-02-28T07:08:22;5.50;;;3.10;;
67092;SDS011;54011;50.772;7.730;2023-02-28T07:10:51;7.43;;;3.50;;
67092;SDS011;54011;50.772;7.730;2023-02-28T07:13:20;6.07;;;3.17;;
67092;SDS011;54011;50.772;7.730;2023-02-28T07:15:56;7.70;;;2.92;;
67092;SDS011;54011;50.772;7.730;2023-02-28T07:18:27;6.93;;;3.47;;
67092;SDS011;54011;50.772;7.730;2023-02-28T07:20:52;8.50;;;3.63;;
67092;SDS011;54011;50.772;7.730;2023-02-28T07:23:19;6.18;;;3.20;;
67092;SDS011;54011;50.772;7.730;2023-02-28T07:25:44;7.53;;;3.83;;
67092;SDS011;54011;50.772;7.730;2023-02-28T07:28:11;7.45;;;4.03;;
67092;SDS011;54011;50.772;7.730;2023-02-28T07:30:38;6.90;;;3.80;;
67092;SDS011;54011;50.772;7.730;2023-02-28T07:33:03;7.15;;;3.10;;
67092;SDS011;54011;50.772;7.730;2023-02-28T07:35:29;9.00;;;3.88;;
67092;SDS011;54011;50.772;7.730;2023-02-28T07:37:54;7.50;;;3.75;;
67092;SDS011;54011;50.772;7.730;2023-02-28T07:40:22;7.18;;;3.38;;
67092;SDS011;54011;50.772;7.730;2023-02-28T07:42:48;7.63;;;3.22;;
67092;SDS011;54011;50.772;7.730;2023-02-28T07:45:15;5.95;;;3.03;;
67092;SDS011;54011;50.772;7.730;2023-02-28T07:47:42;8.30;;;4.15;;
67092;SDS011;54011;50.772;7.730;2023-02-28T07:50:11;10.13;;;4.32;;
67092;SDS011;54011;50.772;7.730;2023-02-28T07:52:39;8.15;;;4.38;;
67092;SDS011;54011;50.772;7.730;2023-02-28T07:55:08;7.88;;;3.55;;
67092;SDS011;54011;50.772;7.730;2023-02-28T07:57:35;6.25;;;3.28;;
67092;SDS011;54011;50.772;7.730;2023-02-28T08:00:01;6.80;;;3.10;;
67092;SDS011;54011;50.772;7.730;2023-02-28T08:02:36;7.03;;;2.97;;
67092;SDS011;54011;50.772;7.730;2023-02-28T08:05:02;7.32;;;3.10;;
67092;SDS011;54011;50.772;7.730;2023-02-28T08:07:28;9.70;;;3.50;;
67092;SDS011;54011;50.772;7.730;2023-02-28T08:09:54;11.48;;;4.75;;
67092;SDS011;54011;50.772;7.730;2023-02-28T08:12:19;11.93;;;5.68;;
67092;SDS011;54011;50.772;7.730;2023-02-28T08:14:45;8.32;;;4.50;;
67092;SDS011;54011;50.772;7.730;2023-02-28T08:17:11;6.95;;;3.13;;
67092;SDS011;54011;50.772;7.730;2023-02-28T08:19:37;11.45;;;5.72;;
67092;SDS011;54011;50.772;7.730;2023-02-28T08:22:03;5.22;;;2.92;;
67092;SDS011;54011;50.772;7.730;2023-02-28T08:24:28;5.50;;;2.67;;
67092;SDS011;54011;50.772;7.730;2023-02-28T08:26:55;4.97;;;1.95;;
67092;SDS011;54011;50.772;7.730;2023-02-28T08:29:21;6.18;;;3.50;;
67092;SDS011;54011;50.772;7.730;2023-02-28T08:31:48;6.22;;;3.05;;
67092;SDS011;54011;50.772;7.730;2023-02-28T08:34:14;5.90;;;2.25;;
67092;SDS011;54011;50.772;7.730;2023-02-28T08:36:42;5.97;;;2.72;;
67092;SDS011;54011;50.772;7.730;2023-02-28T08:39:10;6.75;;;2.95;;
67092;SDS011;54011;50.772;7.730;2023-02-28T08:41:35;11.50;;;4.88;;
67092;SDS011;54011;50.772;7.730;2023-02-28T08:44:04;10.95;;;4.00;;
67092;SDS011;54011;50.772;7.730;2023-02-28T08:46:31;9.15;;;3.55;;
67092;SDS011;54011;50.772;7.730;2023-02-28T08:48:57;7.38;;;3.33;;
67092;SDS011;54011;50.772;7.730;2023-02-28T08:51:27;5.18;;;2.78;;
67092;SDS011;54011;50.772;7.730;2023-02-28T08:53:54;6.28;;;2.70;;
67092;SDS011;54011;50.772;7.730;2023-02-28T08:56:20;5.90;;;2.92;;
67092;SDS011;54011;50.772;7.730;2023-02-28T08:58:46;5.80;;;2.70;;
67092;SDS011;54011;50.772;7.730;2023-02-28T09:01:14;7.80;;;2.67;;
67092;SDS011;54011;50.772;7.730;2023-02-28T09:03:41;3.38;;;1.83;;
67092;SDS011;54011;50.772;7.730;2023-02-28T09:06:08;4.00;;;1.90;;
67092;SDS011;54011;50.772;7.730;2023-02-28T09:08:34;4.30;;;2.03;;
67092;SDS011;54011;50.772;7.730;2023-02-28T09:11:00;5.25;;;2.25;;
67092;SDS011;54011;50.772;7.730;2023-02-28T09:13:32;3.05;;;1.42;;
67092;SDS011;54011;50.772;7.730;2023-02-28T09:15:58;4.53;;;1.80;;
67092;SDS011;54011;50.772;7.730;2023-02-28T09:18:25;3.47;;;1.63;;
67092;SDS011;54011;50.772;7.730;2023-02-28T09:20:51;3.08;;;1.48;;
67092;SDS011;54011;50.772;7.730;2023-02-28T09:23:17;3.20;;;1.45;;
67092;SDS011;54011;50.772;7.730;2023-02-28T09:25:47;3.80;;;1.20;;
67092;SDS011;54011;50.772;7.730;2023-02-28T09:28:14;4.63;;;1.42;;
67092;SDS011;54011;50.772;7.730;2023-02-28T09:30:47;3.13;;;1.40;;
67092;SDS011;54011;50.772;7.730;2023-02-28T09:35:42;3.60;;;1.55;;
67092;SDS011;54011;50.772;7.730;2023-02-28T09:38:08;4.78;;;1.60;;
67092;SDS011;54011;50.772;7.730;2023-02-28T09:40:39;5.35;;;1.83;;
67092;SDS011;54011;50.772;7.730;2023-02-28T09:43:18;3.22;;;1.40;;
67092;SDS011;54011;50.772;7.730;2023-02-28T09:45:48;3.35;;;1.30;;
67092;SDS011;54011;50.772;7.730;2023-02-28T09:48:20;3.13;;;1.30;;
67092;SDS011;54011;50.772;7.730;2023-02-28T09:50:50;3.53;;;1.50;;
67092;SDS011;54011;50.772;7.730;2023-02-28T09:53:23;2.23;;;1.13;;
67092;SDS011;54011;50.772;7.730;2023-02-28T09:55:55;4.03;;;1.45;;
67092;SDS011;54011;50.772;7.730;2023-02-28T09:58:37;3.10;;;1.50;;
67092;SDS011;54011;50.772;7.730;2023-02-28T10:01:12;3.55;;;1.73;;
67092;SDS011;54011;50.772;7.730;2023-02-28T10:03:53;3.40;;;1.63;;
67092;SDS011;54011;50.772;7.730;2023-02-28T10:06:22;4.57;;;1.70;;
67092;SDS011;54011;50.772;7.730;2023-02-28T10:09:09;4.25;;;1.77;;
67092;SDS011;54011;50.772;7.730;2023-02-28T10:11:38;3.78;;;1.60;;
67092;SDS011;54011;50.772;7.730;2023-02-28T10:14:22;2.90;;;1.23;;
67092;SDS011;54011;50.772;7.730;2023-02-28T10:16:56;4.43;;;1.50;;
67092;SDS011;54011;50.772;7.730;2023-02-28T10:19:28;3.75;;;1.52;;
67092;SDS011;54011;50.772;7.730;2023-02-28T10:22:10;3.63;;;1.70;;
67092;SDS011;54011;50.772;7.730;2023-02-28T10:29:46;3.83;;;1.45;;
67092;SDS011;54011;50.772;7.730;2023-02-28T10:32:19;3.55;;;1.55;;
67092;SDS011;54011;50.772;7.730;2023-02-28T10:34:55;5.15;;;1.67;;
67092;SDS011;54011;50.772;7.730;2023-02-28T10:37:25;4.53;;;1.88;;
67092;SDS011;54011;50.772;7.730;2023-02-28T10:39:51;5.80;;;2.10;;
67092;SDS011;54011;50.772;7.730;2023-02-28T10:42:27;4.53;;;1.92;;
67092;SDS011;54011;50.772;7.730;2023-02-28T10:45:15;3.85;;;1.58;;
67092;SDS011;54011;50.772;7.730;2023-02-28T10:47:58;4.43;;;1.60;;
67092;SDS011;54011;50.772;7.730;2023-02-28T10:50:29;3.25;;;1.38;;
67092;SDS011;54011;50.772;7.730;2023-02-28T10:53:14;3.85;;;1.60;;
67092;SDS011;54011;50.772;7.730;2023-02-28T10:55:57;3.47;;;1.67;;
67092;SDS011;54011;50.772;7.730;2023-02-28T10:58:29;3.40;;;1.52;;
67092;SDS011;54011;50.772;7.730;2023-02-28T11:01:15;4.00;;;1.70;;
67092;SDS011;54011;50.772;7.730;2023-02-28T11:03:43;3.67;;;1.90;;
67092;SDS011;54011;50.772;7.730;2023-02-28T11:06:16;5.03;;;2.00;;
67092;SDS011;54011;50.772;7.730;2023-02-28T11:08:45;3.85;;;1.70;;
67092;SDS011;54011;50.772;7.730;2023-02-28T11:11:12;3.47;;;1.45;;
67092;SDS011;54011;50.772;7.730;2023-02-28T11:13:38;2.97;;;1.42;;
67092;SDS011;54011;50.772;7.730;2023-02-28T11:16:05;4.15;;;1.80;;
67092;SDS011;54011;50.772;7.730;2023-02-28T11:18:46;3.65;;;1.63;;
67092;SDS011;54011;50.772;7.730;2023-02-28T11:21:23;3.28;;;1.55;;
67092;SDS011;54011;50.772;7.730;2023-02-28T11:23:52;5.97;;;1.95;;
67092;SDS011;54011;50.772;7.730;2023-02-28T11:26:42;4.22;;;2.00;;
67092;SDS011;54011;50.772;7.730;2023-02-28T11:29:24;6.00;;;2.20;;
67092;SDS011;54011;50.772;7.730;2023-02-28T11:32:16;3.50;;;1.65;;
67092;SDS011;54011;50.772;7.730;2023-02-28T11:34:46;3.92;;;1.90;;
67092;SDS011;54011;50.772;7.730;2023-02-28T11:37:24;5.15;;;2.10;;
67092;SDS011;54011;50.772;7.730;2023-02-28T11:39:52;3.97;;;1.85;;
67092;SDS011;54011;50.772;7.730;2023-02-28T11:45:43;4.20;;;1.88;;
67092;SDS011;54011;50.772;7.730;2023-02-28T11:48:20;3.72;;;1.60;;
67092;SDS011;54011;50.772;7.730;2023-02-28T11:51:04;6.22;;;2.35;;
67092;SDS011;54011;50.772;7.730;2023-02-28T11:53:51;4.13;;;1.98;;
67092;SDS011;54011;50.772;7.730;2023-02-28T11:56:48;3.97;;;1.83;;
67092;SDS011;54011;50.772;7.730;2023-02-28T12:02:26;5.05;;;2.30;;
67092;SDS011;54011;50.772;7.730;2023-02-28T12:05:10;4.00;;;1.90;;
67092;SDS011;54011;50.772;7.730;2023-02-28T12:10:33;4.78;;;2.55;;
67092;SDS011;54011;50.772;7.730;2023-02-28T12:13:19;5.05;;;2.20;;
67092;SDS011;54011;50.772;7.730;2023-02-28T12:16:00;5.40;;;2.92;;
67092;SDS011;54011;50.772;7.730;2023-02-28T12:18:45;4.07;;;1.98;;
67092;SDS011;54011;50.772;7.730;2023-02-28T12:26:52;4.70;;;2.15;;
67092;SDS011;54011;50.772;7.730;2023-02-28T12:29:23;6.28;;;2.22;;
67092;SDS011;54011;50.772;7.730;2023-02-28T12:37:37;5.35;;;2.58;;
67092;SDS011;54011;50.772;7.730;2023-02-28T12:40:19;5.38;;;2.33;;
67092;SDS011;54011;50.772;7.730;2023-02-28T12:42:51;4.68;;;2.47;;
67092;SDS011;54011;50.772;7.730;2023-02-28T12:45:23;5.00;;;2.33;;
67092;SDS011;54011;50.772;7.730;2023-02-28T12:50:21;5.97;;;2.65;;
67092;SDS011;54011;50.772;7.730;2023-02-28T12:53:03;6.07;;;2.80;;
67092;SDS011;54011;50.772;7.730;2023-02-28T12:55:57;4.88;;;2.70;;
67092;SDS011;54011;50.772;7.730;2023-02-28T12:58:58;5.60;;;2.60;;
67092;SDS011;54011;50.772;7.730;2023-02-28T13:01:37;4.63;;;2.78;;
67092;SDS011;54011;50.772;7.730;2023-02-28T13:07:30;4.82;;;2.95;;
67092;SDS011;54011;50.772;7.730;2023-02-28T13:10:22;3.38;;;1.85;;
67092;SDS011;54011;50.772;7.730;2023-02-28T13:12:48;5.05;;;2.88;;
67092;SDS011;54011;50.772;7.730;2023-02-28T13:15:17;7.63;;;3.22;;
67092;SDS011;54011;50.772;7.730;2023-02-28T13:22:45;5.15;;;2.55;;
67092;SDS011;54011;50.772;7.730;2023-02-28T13:25:49;5.32;;;2.50;;
67092;SDS011;54011;50.772;7.730;2023-02-28T13:28:12;7.43;;;3.30;;
67092;SDS011;54011;50.772;7.730;2023-02-28T13:31:00;5.13;;;2.70;;
67092;SDS011;54011;50.772;7.730;2023-02-28T13:33:29;5.15;;;2.75;;
67092;SDS011;54011;50.772;7.730;2023-02-28T13:38:58;4.57;;;2.90;;
67092;SDS011;54011;50.772;7.730;2023-02-28T13:55:02;5.10;;;2.90;;
67092;SDS011;54011;50.772;7.730;2023-02-28T13:57:49;7.63;;;3.35;;
67092;SDS011;54011;50.772;7.730;2023-02-28T14:06:28;6.45;;;3.17;;
67092;SDS011;54011;50.772;7.730;2023-02-28T14:09:00;6.75;;;3.33;;
67092;SDS011;54011;50.772;7.730;2023-02-28T14:11:45;7.00;;;2.67;;
67092;SDS011;54011;50.772;7.730;2023-02-28T14:17:00;5.38;;;2.85;;
67092;SDS011;54011;50.772;7.730;2023-02-28T14:19:29;5.13;;;3.00;;
67092;SDS011;54011;50.772;7.730;2023-02-28T14:22:05;5.88;;;3.30;;
67092;SDS011;54011;50.772;7.730;2023-02-28T14:38:36;5.03;;;2.92;;
67092;SDS011;54011;50.772;7.730;2023-02-28T14:41:12;6.68;;;3.05;;
67092;SDS011;54011;50.772;7.730;2023-02-28T14:43:49;5.50;;;3.10;;
67092;SDS011;54011;50.772;7.730;2023-02-28T14:46:19;6.60;;;2.88;;
67092;SDS011;54011;50.772;7.730;2023-02-28T14:48:49;6.53;;;3.00;;
67092;SDS011;54011;50.772;7.730;2023-02-28T14:51:20;5.97;;;3.08;;
67092;SDS011;54011;50.772;7.730;2023-02-28T14:53:51;5.10;;;2.60;;
67092;SDS011;54011;50.772;7.730;2023-02-28T14:56:24;7.88;;;2.90;;
67092;SDS011;54011;50.772;7.730;2023-02-28T14:58:59;6.85;;;3.05;;
67092;SDS011;54011;50.772;7.730;2023-02-28T15:01:24;4.95;;;2.95;;
67092;SDS011;54011;50.772;7.730;2023-02-28T15:03:58;6.68;;;3.38;;
67092;SDS011;54011;50.772;7.730;2023-02-28T15:06:27;5.28;;;2.65;;
67092;SDS011;54011;50.772;7.730;2023-02-28T15:09:10;6.50;;;2.80;;
67092;SDS011;54011;50.772;7.730;2023-02-28T15:11:47;5.82;;;2.83;;
67092;SDS011;54011;50.772;7.730;2023-02-28T15:14:16;5.72;;;2.88;;
67092;SDS011;54011;50.772;7.730;2023-02-28T15:16:44;5.90;;;2.90;;
67092;SDS011;54011;50.772;7.730;2023-02-28T15:22:06;5.63;;;2.95;;
67092;SDS011;54011;50.772;7.730;2023-02-28T15:27:15;5.50;;;2.95;;
67092;SDS011;54011;50.772;7.730;2023-02-28T15:29:51;6.10;;;2.80;;
67092;SDS011;54011;50.772;7.730;2023-02-28T15:32:37;5.13;;;2.78;;
67092;SDS011;54011;50.772;7.730;2023-02-28T15:38:24;5.10;;;2.78;;
67092;SDS011;54011;50.772;7.730;2023-02-28T15:40:53;6.68;;;2.80;;
67092;SDS011;54011;50.772;7.730;2023-02-28T15:43:24;6.22;;;3.25;;
67092;SDS011;54011;50.772;7.730;2023-02-28T15:49:16;7.47;;;3.08;;
67092;SDS011;54011;50.772;7.730;2023-02-28T15:51:28;6.18;;;2.80;;
67092;SDS011;54011;50.772;7.730;2023-02-28T15:54:04;4.65;;;2.72;;
67092;SDS011;54011;50.772;7.730;2023-02-28T15:56:38;7.30;;;2.85;;
67092;SDS011;54011;50.772;7.730;2023-02-28T15:59:12;5.72;;;2.95;;
67092;SDS011;54011;50.772;7.730;2023-02-28T16:01:41;6.72;;;3.40;;
67092;SDS011;54011;50.772;7.730;2023-02-28T16:04:15;7.82;;;3.78;;
67092;SDS011;54011;50.772;7.730;2023-02-28T16:06:45;8.05;;;3.88;;
67092;SDS011;54011;50.772;7.730;2023-02-28T16:09:16;13.73;;;5.43;;
67092;SDS011;54011;50.772;7.730;2023-02-28T16:11:45;7.20;;;3.50;;
67092;SDS011;54011;50.772;7.730;2023-02-28T16:14:15;8.23;;;4.18;;
67092;SDS011;54011;50.772;7.730;2023-02-28T16:16:45;11.00;;;5.65;;
67092;SDS011;54011;50.772;7.730;2023-02-28T16:19:12;10.73;;;6.07;;
67092;SDS011;54011;50.772;7.730;2023-02-28T16:21:38;10.77;;;5.78;;
67092;SDS011;54011;50.772;7.730;2023-02-28T16:24:04;6.32;;;4.00;;
67092;SDS011;54011;50.772;7.730;2023-02-28T16:26:30;8.18;;;3.75;;
67092;SDS011;54011;50.772;7.730;2023-02-28T16:29:00;8.70;;;3.65;;
67092;SDS011;54011;50.772;7.730;2023-02-28T16:31:27;8.48;;;3.75;;
67092;SDS011;54011;50.772;7.730;2023-02-28T16:33:53;8.00;;;3.63;;
67092;SDS011;54011;50.772;7.730;2023-02-28T16:36:20;6.15;;;3.00;;
67092;SDS011;54011;50.772;7.730;2023-02-28T16:38:48;9.15;;;4.50;;
67092;SDS011;54011;50.772;7.730;2023-02-28T16:41:16;9.18;;;4.55;;
67092;SDS011;54011;50.772;7.730;2023-02-28T16:43:44;8.20;;;4.20;;
67092;SDS011;54011;50.772;7.730;2023-02-28T16:46:12;7.72;;;4.05;;
67092;SDS011;54011;50.772;7.730;2023-02-28T16:48:38;6.57;;;3.42;;
67092;SDS011;54011;50.772;7.730;2023-02-28T16:51:06;9.45;;;4.40;;
67092;SDS011;54011;50.772;7.730;2023-02-28T16:53:36;10.80;;;3.75;;
67092;SDS011;54011;50.772;7.730;2023-02-28T16:56:03;9.07;;;3.83;;
67092;SDS011;54011;50.772;7.730;2023-02-28T16:58:29;9.27;;;4.30;;
67092;SDS011;54011;50.772;7.730;2023-02-28T17:00:55;9.15;;;4.65;;
67092;SDS011;54011;50.772;7.730;2023-02-28T17:03:23;10.63;;;5.15;;
67092;SDS011;54011;50.772;7.730;2023-02-28T17:05:51;11.15;;;5.72;;